Time;durP1;ratioP1;P1;durP2;ratioP2;P2;SDS_P1;SDS_P2;PMS_P1;PMS_P2;Temp;Humidity;BMP_temperature;BMP_pressure;BME280_temperature;BME280_humidity;BME280_pressure;Samples;Min_cycle;Max_cycle;Signal;HPM_P1;HPM_P2
2024/04/08 00:00:09;;;;;;;2.57;2.23;;;;;;;7.53;65.79;94087.84;530418;27;756;-73
2024/04/08 00:00:25;;;;;;;2.40;2.20;;;;;;;7.49;66.08;94083.91;530447;27;847;-73
2024/04/08 00:00:40;;;;;;;2.70;2.23;;;;;;;7.40;66.37;94090.47;530415;27;799;-73
2024/04/08 00:00:56;;;;;;;3.03;2.17;;;;;;;7.27;66.80;94087.59;530339;27;851;-73
2024/04/08 00:01:12;;;;;;;2.40;2.08;;;;;;;7.21;66.86;94089.59;530365;27;898;-73
2024/04/08 00:01:27;;;;;;;2.60;2.17;;;;;;;7.13;67.18;94083.19;530414;27;771;-73
2024/04/08 00:01:44;;;;;;;3.65;2.30;;;;;;;7.05;67.29;94090.50;530474;27;867;-73
2024/04/08 00:01:59;;;;;;;3.53;2.30;;;;;;;7.01;67.23;94081.78;530405;27;927;-73
2024/04/08 00:02:15;;;;;;;2.30;2.10;;;;;;;7.02;67.51;94088.03;530307;27;760;-73
2024/04/08 00:02:31;;;;;;;2.13;1.93;;;;;;;7.04;67.29;94085.53;530442;27;850;-73
2024/04/08 00:02:50;;;;;;;2.15;1.92;;;;;;;7.01;67.60;94092.03;530423;27;858;-73
2024/04/08 00:03:05;;;;;;;2.40;2.10;;;;;;;6.99;67.31;94086.28;530369;27;914;-73
2024/04/08 00:03:20;;;;;;;3.33;2.00;;;;;;;6.95;67.59;94089.31;530396;27;816;-73
2024/04/08 00:03:36;;;;;;;3.53;2.03;;;;;;;6.93;67.79;94089.06;530308;27;855;-73
2024/04/08 00:03:51;;;;;;;2.63;2.07;;;;;;;6.91;67.79;94088.84;530404;27;901;-73
2024/04/08 00:04:07;;;;;;;2.65;2.20;;;;;;;6.92;67.99;94078.59;530409;27;791;-73
2024/04/08 00:04:22;;;;;;;2.60;2.10;;;;;;;6.88;67.84;94084.38;530352;27;772;-73
2024/04/08 00:04:38;;;;;;;2.97;2.10;;;;;;;6.84;68.00;94079.16;530426;27;780;-73
2024/04/08 00:04:53;;;;;;;4.10;2.20;;;;;;;6.83;68.17;94083.16;530426;27;748;-73
2024/04/08 00:05:09;;;;;;;2.88;1.98;;;;;;;6.64;68.14;94052.09;530340;27;846;-73
2024/04/08 00:05:24;;;;;;;1.80;1.70;;;;;;;6.73;68.18;94067.50;530426;27;812;-73
2024/04/08 00:05:40;;;;;;;2.03;1.90;;;;;;;6.85;68.12;94080.66;530419;27;772;-73
2024/04/08 00:05:56;;;;;;;2.40;2.10;;;;;;;6.90;68.12;94087.34;530426;27;768;-73
2024/04/08 00:06:11;;;;;;;2.67;2.13;;;;;;;6.94;68.11;94089.81;530351;27;811;-73
2024/04/08 00:06:27;;;;;;;2.80;2.25;;;;;;;6.98;67.98;94087.53;530297;27;815;-73
2024/04/08 00:06:42;;;;;;;2.17;1.97;;;;;;;7.01;67.67;94087.28;530475;27;1077;-73
2024/04/08 00:06:59;;;;;;;2.33;2.00;;;;;;;7.04;67.65;94077.28;530420;27;756;-73
2024/04/08 00:07:14;;;;;;;2.30;1.90;;;;;;;7.05;67.45;94082.25;530360;27;812;-73
2024/04/08 00:07:30;;;;;;;2.17;1.73;;;;;;;7.07;67.40;94082.50;530428;27;863;-73
2024/04/08 00:07:46;;;;;;;2.87;1.77;;;;;;;7.09;67.31;94082.72;530417;27;732;-73
2024/04/08 00:08:01;;;;;;;2.67;1.75;;;;;;;7.10;67.42;94086.22;530345;27;1917;-73
2024/04/08 00:08:17;;;;;;;2.45;1.83;;;;;;;7.10;67.32;94077.97;530341;27;938;-73
2024/04/08 00:08:32;;;;;;;2.67;1.90;;;;;;;7.10;67.63;94081.47;530364;27;815;-73
2024/04/08 00:08:47;;;;;;;2.37;1.90;;;;;;;7.11;67.66;94080.22;530386;27;894;-73
2024/04/08 00:09:03;;;;;;;1.85;1.75;;;;;;;7.10;67.77;94086.97;530450;27;779;-73
2024/04/08 00:09:18;;;;;;;2.17;1.80;;;;;;;7.09;68.00;94082.72;530141;27;811;-73
2024/04/08 00:09:36;;;;;;;2.92;1.95;;;;;;;7.10;68.07;94088.97;530418;27;744;-73
2024/04/08 00:09:52;;;;;;;2.38;2.00;;;;;;;7.08;68.22;94083.97;532299;27;1232;-73
2024/04/08 00:10:07;;;;;;;2.20;1.93;;;;;;;7.06;68.75;94083.00;532384;27;836;-73
2024/04/08 00:10:22;;;;;;;1.93;1.70;;;;;;;7.04;68.39;94085.53;532384;27;843;-73
2024/04/08 00:10:38;;;;;;;3.10;1.80;;;;;;;7.00;68.71;94085.03;532314;27;811;-74
2024/04/08 00:10:53;;;;;;;3.00;1.83;;;;;;;6.95;68.67;94088.56;532376;27;838;-73
2024/04/08 00:11:09;;;;;;;1.95;1.80;;;;;;;6.92;68.55;94084.84;532338;27;853;-73
2024/04/08 00:11:24;;;;;;;2.23;1.90;;;;;;;6.92;68.60;94084.84;532325;27;807;-73
2024/04/08 00:11:40;;;;;;;3.22;1.90;;;;;;;6.90;68.61;94087.34;532120;27;807;-73
2024/04/08 00:11:55;;;;;;;2.77;1.90;;;;;;;6.88;69.05;94087.13;530370;27;894;-73
2024/04/08 00:12:11;;;;;;;2.28;2.00;;;;;;;6.89;68.98;94085.84;530261;27;768;-73
2024/04/08 00:12:26;;;;;;;2.33;1.90;;;;;;;6.92;68.72;94090.34;530395;27;764;-73
2024/04/08 00:12:43;;;;;;;2.92;1.80;;;;;;;6.94;68.83;94087.06;530366;27;860;-73
2024/04/08 00:12:59;;;;;;;3.40;2.00;;;;;;;6.97;68.83;94084.06;530487;27;937;-73
2024/04/08 00:13:15;;;;;;;2.33;1.90;;;;;;;6.87;68.50;94069.16;530380;27;898;-73
2024/04/08 00:13:31;;;;;;;4.13;1.90;;;;;;;6.95;68.87;94085.84;530314;27;780;-73
2024/04/08 00:13:46;;;;;;;4.82;1.92;;;;;;;6.88;69.02;94078.88;530384;27;847;-73
2024/04/08 00:14:02;;;;;;;2.65;1.80;;;;;;;6.86;69.08;94086.88;530440;27;804;-73
2024/04/08 00:14:18;;;;;;;2.73;1.73;;;;;;;6.87;69.08;94085.63;530336;27;772;-73
2024/04/08 00:14:33;;;;;;;2.42;1.73;;;;;;;6.91;69.04;94077.13;530365;27;854;-73
2024/04/08 00:14:49;;;;;;;2.00;1.90;;;;;;;6.94;68.95;94085.09;530300;27;787;-73
2024/04/08 00:15:06;;;;;;;2.17;1.97;;;;;;;6.97;68.73;94086.81;530367;27;863;-73
2024/04/08 00:15:22;;;;;;;2.00;1.80;;;;;;;7.00;68.60;94091.28;530400;27;803;-73
2024/04/08 00:15:37;;;;;;;1.60;1.50;;;;;;;7.02;68.74;94083.25;530426;27;819;-73
2024/04/08 00:15:58;;;;;;;1.67;1.57;;;;;;;7.06;68.40;94083.00;530408;27;878;-73
2024/04/08 00:16:14;;;;;;;1.73;1.63;;;;;;;7.07;68.36;94085.25;530259;27;823;-73
2024/04/08 00:16:30;;;;;;;1.67;1.57;;;;;;;7.07;68.16;94085.25;530415;27;847;-73
2024/04/08 00:16:45;;;;;;;1.90;1.80;;;;;;;7.06;68.18;94088.50;530396;27;784;-72
2024/04/08 00:17:01;;;;;;;2.03;1.90;;;;;;;7.02;68.03;94086.00;530419;27;855;-73
2024/04/08 00:17:16;;;;;;;1.67;1.58;;;;;;;6.98;67.69;94082.81;530356;27;843;-73
2024/04/08 00:17:32;;;;;;;1.60;1.50;;;;;;;6.96;67.82;94090.81;530323;27;816;-73
2024/04/08 00:17:47;;;;;;;1.38;1.17;;;;;;;6.96;67.58;94085.31;530412;27;859;-73
2024/04/08 00:18:04;;;;;;;1.37;1.27;;;;;;;6.97;67.37;94091.56;530450;27;806;-73
2024/04/08 00:18:19;;;;;;;1.60;1.50;;;;;;;6.95;67.48;94078.34;530324;27;894;-73
2024/04/08 00:18:34;;;;;;;1.40;1.30;;;;;;;6.94;67.28;94082.34;530336;27;756;-73
2024/04/08 00:18:50;;;;;;;2.45;1.35;;;;;;;6.98;67.34;94087.53;530350;27;851;-73
2024/04/08 00:19:05;;;;;;;2.90;1.57;;;;;;;7.00;67.31;94083.03;530308;27;874;-73
2024/04/08 00:19:21;;;;;;;2.15;1.60;;;;;;;6.97;67.17;94081.31;530314;27;780;-73
2024/04/08 00:19:36;;;;;;;1.77;1.60;;;;;;;6.99;67.25;94086.28;530433;27;1069;-73
2024/04/08 00:19:52;;;;;;;2.17;1.98;;;;;;;7.00;67.15;94085.03;530356;27;894;-73
2024/04/08 00:20:08;;;;;;;2.83;2.43;;;;;;;7.00;67.00;94085.03;530418;27;760;-73
2024/04/08 00:20:24;;;;;;;3.33;2.80;;;;;;;7.02;67.24;94085.28;529919;27;835;-73
2024/04/08 00:20:39;;;;;;;3.17;2.65;;;;;;;7.02;66.94;94080.53;530336;27;843;-73
2024/04/08 00:21:02;;;;;;;2.60;2.40;;;;;;;7.05;66.47;94082.25;530345;27;907;-73
2024/04/08 00:21:18;;;;;;;3.10;2.65;;;;;;;7.04;66.86;94085.53;530334;27;831;-73
2024/04/08 00:21:33;;;;;;;3.55;2.83;;;;;;;6.97;66.81;94081.31;530382;27;863;-73
2024/04/08 00:21:49;;;;;;;2.80;2.50;;;;;;;6.91;66.93;94080.59;530378;27;796;-73
2024/04/08 00:22:04;;;;;;;4.07;2.40;;;;;;;6.82;67.50;94081.66;530381;27;752;-73
2024/04/08 00:22:20;;;;;;;4.13;2.57;;;;;;;6.82;67.47;94080.94;530312;27;796;-73
2024/04/08 00:22:35;;;;;;;2.85;2.63;;;;;;;6.81;67.48;94082.16;530401;27;796;-73
2024/04/08 00:22:51;;;;;;;4.60;2.90;;;;;;;6.80;67.50;94072.44;530432;27;831;-73
2024/04/08 00:23:07;;;;;;;5.18;3.20;;;;;;;6.82;67.76;94076.16;530314;27;806;-73
2024/04/08 00:23:22;;;;;;;4.03;3.15;;;;;;;6.85;67.65;94077.16;530378;27;780;-73
2024/04/08 00:23:38;;;;;;;3.67;3.07;;;;;;;6.86;67.67;94073.16;530392;27;831;-73
2024/04/08 00:23:54;;;;;;;4.07;3.30;;;;;;;6.89;67.66;94078.38;530273;27;967;-73
2024/04/08 00:24:09;;;;;;;5.57;3.88;;;;;;;6.93;67.56;94078.09;530313;27;1130;-73
2024/04/08 00:24:24;;;;;;;5.97;3.97;;;;;;;6.94;67.33;94074.09;530198;27;803;-73
2024/04/08 00:24:40;;;;;;;4.90;3.70;;;;;;;6.98;67.42;94076.56;530388;27;910;-73
2024/04/08 00:24:55;;;;;;;3.87;3.50;;;;;;;6.93;67.31;94066.38;530386;27;800;-73
2024/04/08 00:25:11;;;;;;;3.43;3.10;;;;;;;7.02;66.99;94077.06;530396;27;890;-73
2024/04/08 00:25:26;;;;;;;3.45;3.05;;;;;;;7.04;67.21;94077.28;530371;27;963;-73
2024/04/08 00:25:42;;;;;;;4.10;3.17;;;;;;;7.05;66.92;94079.50;530365;27;855;-73
2024/04/08 00:26:02;;;;;;;3.70;2.85;;;;;;;7.08;66.98;94083.25;530309;27;776;-73
2024/04/08 00:26:17;;;;;;;3.83;3.33;;;;;;;7.09;66.95;94082.72;530376;27;820;-73
2024/04/08 00:26:33;;;;;;;4.18;3.30;;;;;;;7.13;66.97;94085.19;530370;27;773;-73
2024/04/08 00:26:49;;;;;;;3.97;3.17;;;;;;;7.14;66.86;94075.69;530381;27;850;-73
2024/04/08 00:27:04;;;;;;;4.40;3.65;;;;;;;7.15;66.66;94080.69;530352;27;756;-73
2024/04/08 00:27:20;;;;;;;4.40;3.80;;;;;;;7.17;66.64;94074.69;530236;27;803;-73
2024/04/08 00:27:36;;;;;;;3.80;3.25;;;;;;;7.19;66.68;94075.66;530338;27;792;-73
2024/04/08 00:27:51;;;;;;;4.10;3.30;;;;;;;7.20;66.20;94077.16;530385;27;826;-72
2024/04/08 00:28:07;;;;;;;4.13;3.47;;;;;;;7.21;66.29;94070.38;530285;27;1909;-73
2024/04/08 00:28:22;;;;;;;3.30;2.95;;;;;;;7.24;66.09;94082.34;530375;27;776;-73
2024/04/08 00:28:38;;;;;;;3.00;2.70;;;;;;;7.23;66.11;94078.13;530356;27;741;-73
2024/04/08 00:28:53;;;;;;;3.00;2.70;;;;;;;7.23;66.05;94069.91;530314;27;780;-73
2024/04/08 00:29:08;;;;;;;3.53;3.03;;;;;;;7.22;66.19;94076.63;530381;27;752;-73
2024/04/08 00:29:24;;;;;;;6.33;3.33;;;;;;;7.21;66.12;94078.63;530307;27;764;-73
2024/04/08 00:29:39;;;;;;;5.18;2.80;;;;;;;7.22;65.75;94082.13;530281;27;768;-73
2024/04/08 00:29:55;;;;;;;2.87;2.30;;;;;;;7.20;66.00;94074.41;530150;27;914;-73
2024/04/08 00:30:11;;;;;;;3.25;2.45;;;;;;;7.16;65.97;94082.19;530128;27;811;-73
2024/04/08 00:30:26;;;;;;;3.10;2.42;;;;;;;7.09;66.09;94084.72;530199;27;851;-73
2024/04/08 00:30:41;;;;;;;2.77;2.30;;;;;;;6.96;66.23;94077.06;530213;27;840;-73
2024/04/08 00:31:04;;;;;;;2.65;2.20;;;;;;;6.84;65.90;94081.16;530230;27;760;-72
2024/04/08 00:31:19;;;;;;;2.30;2.08;;;;;;;6.75;65.90;94081.47;530063;27;950;-73
2024/04/08 00:31:35;;;;;;;1.73;1.60;;;;;;;6.66;66.29;94084.50;530273;27;831;-73
2024/04/08 00:31:50;;;;;;;1.40;1.30;;;;;;;6.59;66.47;94090.53;530416;27;859;-73
2024/04/08 00:32:06;;;;;;;1.33;1.23;;;;;;;6.61;66.67;94082.53;530365;27;764;-73
2024/04/08 00:32:21;;;;;;;1.20;1.10;;;;;;;6.61;66.79;94077.06;530382;27;855;-72
2024/04/08 00:32:37;;;;;;;0.93;0.87;;;;;;;6.63;66.93;94080.03;530302;27;756;-73
2024/04/08 00:32:52;;;;;;;1.05;0.95;;;;;;;6.66;66.76;94085.25;530308;27;768;-73
2024/04/08 00:33:07;;;;;;;1.20;1.10;;;;;;;6.71;66.66;94084.47;530318;27;843;-73
2024/04/08 00:33:23;;;;;;;1.10;1.00;;;;;;;6.73;66.60;94078.50;530374;27;776;-73
2024/04/08 00:33:38;;;;;;;1.08;0.98;;;;;;;6.76;66.55;94080.19;530396;27;847;-73
2024/04/08 00:33:54;;;;;;;1.10;0.90;;;;;;;6.78;66.55;94074.94;530263;27;756;-73
2024/04/08 00:34:09;;;;;;;1.50;1.00;;;;;;;6.79;66.54;94081.94;530255;27;832;-73
2024/04/08 00:34:24;;;;;;;1.57;1.20;;;;;;;6.78;66.53;94077.69;530288;27;898;-73
2024/04/08 00:34:40;;;;;;;1.50;1.37;;;;;;;6.78;66.59;94078.44;530415;27;839;-73
2024/04/08 00:34:56;;;;;;;1.65;1.45;;;;;;;6.80;66.66;94075.19;530359;27;848;-73
2024/04/08 00:35:11;;;;;;;2.40;1.35;;;;;;;6.78;66.66;94077.69;530294;27;906;-73
2024/04/08 00:35:27;;;;;;;3.20;1.37;;;;;;;6.80;66.69;94077.94;530299;27;796;-73
2024/04/08 00:35:43;;;;;;;1.92;1.38;;;;;;;6.80;66.89;94075.94;530297;27;844;-73
2024/04/08 00:35:59;;;;;;;1.40;1.30;;;;;;;6.78;66.87;94075.69;530368;27;796;-73
2024/04/08 00:36:14;;;;;;;1.42;1.33;;;;;;;6.76;66.87;94078.22;530267;27;903;-73
2024/04/08 00:36:30;;;;;;;2.13;1.40;;;;;;;6.73;67.17;94073.00;530399;27;755;-73
2024/04/08 00:36:45;;;;;;;2.47;1.35;;;;;;;6.71;67.19;94075.50;530400;27;839;-72
2024/04/08 00:37:01;;;;;;;1.90;1.27;;;;;;;6.69;67.02;94078.75;530347;27;753;-73
2024/04/08 00:37:16;;;;;;;1.35;1.20;;;;;;;6.72;67.26;94074.25;530265;27;891;-73
2024/04/08 00:37:31;;;;;;;1.20;1.10;;;;;;;6.73;67.24;94081.22;530340;27;756;-73
2024/04/08 00:37:48;;;;;;;1.30;1.20;;;;;;;6.73;67.41;94076.50;530375;27;847;-73
2024/04/08 00:38:03;;;;;;;1.40;1.30;;;;;;;6.73;67.53;94075.75;530430;27;860;-73
2024/04/08 00:38:19;;;;;;;1.90;1.40;;;;;;;6.73;67.35;94073.00;530272;27;917;-73
2024/04/08 00:38:35;;;;;;;1.58;1.17;;;;;;;6.71;67.24;94076.22;530320;27;768;-73
2024/04/08 00:38:51;;;;;;;1.00;1.00;;;;;;;6.71;67.39;94070.75;530399;27;906;-73
2024/04/08 00:39:06;;;;;;;1.83;1.38;;;;;;;6.71;67.39;94070.75;530285;27;883;-73
2024/04/08 00:39:22;;;;;;;1.90;1.40;;;;;;;6.72;67.47;94075.00;530212;27;823;-73
2024/04/08 00:39:37;;;;;;;1.27;1.17;;;;;;;6.73;67.67;94073.75;530338;27;828;-73
2024/04/08 00:39:52;;;;;;;1.55;1.30;;;;;;;6.75;67.50;94067.75;530309;27;764;-73
2024/04/08 00:40:08;;;;;;;1.70;1.40;;;;;;;6.76;67.34;94075.47;530371;27;803;-73
2024/04/08 00:40:24;;;;;;;1.55;1.38;;;;;;;6.77;67.52;94073.47;530238;27;795;-72
2024/04/08 00:40:39;;;;;;;1.93;1.30;;;;;;;6.78;67.57;94072.94;530348;27;779;-73
2024/04/08 00:40:54;;;;;;;2.13;1.40;;;;;;;6.80;67.62;94078.69;530323;27;859;-73
2024/04/08 00:41:10;;;;;;;1.70;1.60;;;;;;;6.79;67.54;94066.22;530326;27;752;-73
2024/04/08 00:41:25;;;;;;;1.83;1.73;;;;;;;6.60;67.39;94037.91;530321;27;1061;-73
2024/04/08 00:41:41;;;;;;;1.93;1.80;;;;;;;6.84;67.64;94073.66;530374;27;752;-73
2024/04/08 00:41:56;;;;;;;2.03;1.67;;;;;;;6.74;67.91;94071.72;530334;27;835;-73
2024/04/08 00:42:12;;;;;;;1.87;1.47;;;;;;;6.65;68.08;94070.03;530338;27;748;-72
2024/04/08 00:42:27;;;;;;;1.50;1.40;;;;;;;6.61;68.29;94071.56;530189;27;839;-72
2024/04/08 00:42:45;;;;;;;2.03;1.40;;;;;;;6.53;68.35;94076.84;530368;27;807;-73
2024/04/08 00:43:01;;;;;;;1.55;1.33;;;;;;;6.49;68.88;94072.88;530285;27;1059;-73
2024/04/08 00:43:17;;;;;;;1.52;1.42;;;;;;;6.30;68.85;94053.56;530377;27;859;-72
2024/04/08 00:43:32;;;;;;;1.50;1.40;;;;;;;6.38;68.96;94072.94;530287;27;922;-72
2024/04/08 00:43:48;;;;;;;1.30;1.20;;;;;;;6.35;68.81;94065.72;530289;27;724;-73
2024/04/08 00:44:03;;;;;;;1.52;1.00;;;;;;;6.33;68.77;94070.97;530280;27;831;-72
2024/04/08 00:44:20;;;;;;;1.83;0.83;;;;;;;6.33;68.61;94066.22;530256;27;1087;-73
2024/04/08 00:44:36;;;;;;;1.42;0.95;;;;;;;6.35;68.50;94066.47;530251;27;1020;-73
2024/04/08 00:44:51;;;;;;;1.43;1.10;;;;;;;6.18;68.43;94043.88;528728;27;1094;-72
2024/04/08 00:45:07;;;;;;;1.20;1.10;;;;;;;6.36;68.50;94072.72;528202;28;869;-73
2024/04/08 00:45:22;;;;;;;1.37;1.17;;;;;;;6.37;68.03;94071.44;528112;28;851;-73
2024/04/08 00:45:40;;;;;;;1.10;1.00;;;;;;;6.40;67.91;94064.94;528301;28;792;-73
2024/04/08 00:45:57;;;;;;;0.95;0.95;;;;;;;6.42;67.99;94065.19;528226;28;939;-73
2024/04/08 00:46:22;;;;;;;0.95;0.93;;;;;;;6.41;68.15;94063.72;528219;28;1027;-74
2024/04/08 00:46:38;;;;;;;1.30;0.95;;;;;;;6.44;67.74;94068.16;528142;28;910;-73
2024/04/08 00:46:54;;;;;;;0.98;0.90;;;;;;;6.46;67.74;94065.66;528210;28;972;-73
2024/04/08 00:47:10;;;;;;;1.00;0.90;;;;;;;6.46;67.90;94062.91;528230;28;764;-73
2024/04/08 00:47:26;;;;;;;1.10;0.90;;;;;;;6.45;68.12;94064.19;528209;28;840;-73
2024/04/08 00:47:42;;;;;;;1.30;1.15;;;;;;;6.46;67.81;94069.16;527989;28;1377;-73
2024/04/08 00:47:57;;;;;;;1.47;1.37;;;;;;;6.49;68.11;94070.91;528059;28;1981;-73
2024/04/08 00:48:14;;;;;;;1.45;1.30;;;;;;;6.51;68.08;94064.91;529679;27;1262;-73
2024/04/08 00:48:29;;;;;;;1.48;1.35;;;;;;;6.51;68.19;94062.91;530362;27;969;-73
2024/04/08 00:48:46;;;;;;;1.40;1.30;;;;;;;6.52;68.08;94063.66;530310;27;803;-73
2024/04/08 00:49:02;;;;;;;1.30;1.20;;;;;;;6.48;68.29;94068.66;530085;27;824;-73
2024/04/08 00:49:18;;;;;;;1.40;1.30;;;;;;;6.45;68.31;94064.94;530124;27;811;-73
2024/04/08 00:49:33;;;;;;;1.50;1.20;;;;;;;6.39;68.30;94066.22;530162;27;854;-73
2024/04/08 00:49:49;;;;;;;1.70;1.10;;;;;;;6.32;68.68;94070.25;530184;27;736;-73
2024/04/08 00:50:05;;;;;;;1.47;1.00;;;;;;;6.21;69.02;94073.03;530143;27;843;-73
2024/04/08 00:50:21;;;;;;;1.40;1.13;;;;;;;6.14;69.06;94068.06;530245;27;764;-73
2024/04/08 00:50:37;;;;;;;1.85;1.23;;;;;;;6.05;69.54;94071.84;528022;28;927;-73
2024/04/08 00:50:53;;;;;;;2.00;1.15;;;;;;;6.03;69.26;94068.09;525868;28;824;-73
2024/04/08 00:51:09;;;;;;;3.38;1.10;;;;;;;6.01;69.46;94065.88;525880;28;769;-73
2024/04/08 00:51:24;;;;;;;2.80;1.00;;;;;;;6.03;69.60;94070.84;525872;28;816;-73
2024/04/08 00:51:42;;;;;;;1.38;1.00;;;;;;;5.94;69.45;94043.72;525991;28;1053;-73
2024/04/08 00:51:58;;;;;;;1.02;0.90;;;;;;;6.10;69.70;94067.59;526967;28;918;-73
2024/04/08 00:52:14;;;;;;;2.50;1.30;;;;;;;6.11;69.44;94058.84;527925;28;878;-73
2024/04/08 00:52:29;;;;;;;2.83;1.42;;;;;;;6.15;69.38;94068.81;529131;27;874;-73
2024/04/08 00:52:45;;;;;;;1.57;1.13;;;;;;;6.16;69.19;94062.06;530235;27;836;-73
2024/04/08 00:53:00;;;;;;;1.42;1.00;;;;;;;6.19;69.00;94059.09;530302;27;790;-72
2024/04/08 00:53:17;;;;;;;1.50;1.03;;;;;;;6.21;69.13;94059.31;530312;27;832;-73
2024/04/08 00:53:32;;;;;;;1.70;1.20;;;;;;;6.25;68.83;94053.56;530178;27;930;-73
2024/04/08 00:53:49;;;;;;;1.35;1.05;;;;;;;6.17;68.67;94049.88;530330;27;843;-73
2024/04/08 00:54:04;;;;;;;1.48;1.15;;;;;;;6.30;68.67;94063.78;530083;27;831;-73
2024/04/08 00:54:20;;;;;;;1.17;1.07;;;;;;;6.30;68.44;94059.03;530200;27;779;-73
2024/04/08 00:54:35;;;;;;;0.90;0.90;;;;;;;6.32;68.73;94061.25;530176;27;824;-73
2024/04/08 00:54:51;;;;;;;1.00;1.00;;;;;;;6.35;68.93;94062.97;530209;27;839;-73
2024/04/08 00:55:06;;;;;;;1.05;1.05;;;;;;;6.35;68.89;94071.19;530082;27;822;-73
2024/04/08 00:55:23;;;;;;;1.27;1.17;;;;;;;6.30;69.18;94064.53;530195;27;824;-73
2024/04/08 00:55:38;;;;;;;1.23;1.08;;;;;;;6.30;69.25;94067.25;530190;27;835;-73
2024/04/08 00:55:54;;;;;;;1.10;1.00;;;;;;;6.21;69.24;94051.09;528029;28;836;-73
2024/04/08 00:56:10;;;;;;;1.20;1.10;;;;;;;6.25;69.27;94061.78;525958;28;930;-73
2024/04/08 00:56:25;;;;;;;1.20;1.10;;;;;;;6.29;69.03;94067.75;525855;28;1124;-73
2024/04/08 00:56:43;;;;;;;1.17;1.10;;;;;;;6.29;69.19;94073.97;525964;28;776;-73
2024/04/08 00:57:00;;;;;;;1.00;1.00;;;;;;;6.27;69.31;94071.00;525965;28;824;-73
2024/04/08 00:57:15;;;;;;;0.93;0.90;;;;;;;6.27;69.14;94067.50;525839;28;1042;-73
2024/04/08 00:57:31;;;;;;;2.85;1.10;;;;;;;6.27;69.04;94068.25;525972;28;784;-73
2024/04/08 00:57:47;;;;;;;2.87;1.20;;;;;;;6.28;69.22;94069.75;525828;28;835;-73
2024/04/08 00:58:03;;;;;;;1.55;1.13;;;;;;;6.28;69.09;94064.25;526948;28;808;-73
2024/04/08 00:58:19;;;;;;;1.48;1.30;;;;;;;6.32;69.30;94069.50;529047;27;811;-73
2024/04/08 00:58:35;;;;;;;1.30;1.20;;;;;;;6.34;68.97;94069.72;530176;27;894;-74
2024/04/08 00:58:50;;;;;;;0.90;0.90;;;;;;;6.37;68.91;94063.22;530198;27;831;-73
2024/04/08 00:59:06;;;;;;;1.60;1.05;;;;;;;6.37;68.79;94065.94;530094;27;773;-73
2024/04/08 00:59:22;;;;;;;2.40;1.23;;;;;;;6.37;68.68;94068.69;530224;27;818;-73
2024/04/08 00:59:38;;;;;;;1.83;1.20;;;;;;;6.38;68.27;94067.47;530202;27;883;-73
2024/04/08 00:59:54;;;;;;;1.85;1.30;;;;;;;6.39;68.31;94063.47;530179;27;850;-73
2024/04/08 01:00:10;;;;;;;1.90;1.50;;;;;;;6.41;68.37;94069.19;530155;27;839;-73
2024/04/08 01:00:26;;;;;;;1.48;1.38;;;;;;;6.39;68.23;94068.97;530095;27;833;-73
2024/04/08 01:00:41;;;;;;;2.60;1.35;;;;;;;6.37;68.42;94071.44;530138;27;783;-73
2024/04/08 01:00:58;;;;;;;3.10;1.70;;;;;;;6.31;68.27;94068.75;530140;27;839;-73
2024/04/08 01:01:17;;;;;;;2.28;1.73;;;;;;;6.29;68.07;94071.25;530132;27;828;-73
2024/04/08 01:01:33;;;;;;;1.88;1.70;;;;;;;6.25;68.14;94070.78;530166;27;831;-73
2024/04/08 01:01:49;;;;;;;2.33;1.60;;;;;;;6.25;68.31;94072.75;530195;27;882;-73
2024/04/08 01:02:05;;;;;;;2.17;1.35;;;;;;;6.27;68.50;94073.00;530205;27;894;-73
2024/04/08 01:02:20;;;;;;;1.50;1.40;;;;;;;6.29;68.21;94067.75;530320;27;798;-73
2024/04/08 01:02:36;;;;;;;1.50;1.40;;;;;;;6.30;68.16;94066.50;530199;27;847;-73
2024/04/08 01:02:52;;;;;;;1.33;1.23;;;;;;;6.33;68.11;94068.22;528080;28;753;-73
2024/04/08 01:03:07;;;;;;;1.63;1.23;;;;;;;6.34;67.79;94075.97;525899;28;871;-73
2024/04/08 01:03:23;;;;;;;2.40;1.50;;;;;;;6.36;67.84;94067.22;523747;28;839;-73
2024/04/08 01:03:38;;;;;;;2.00;1.70;;;;;;;6.36;67.30;94062.50;523862;28;835;-73
2024/04/08 01:03:56;;;;;;;2.05;1.70;;;;;;;6.36;67.09;94067.97;523812;28;851;-73
2024/04/08 01:04:12;;;;;;;2.90;1.63;;;;;;;6.34;67.26;94061.50;523680;28;823;-73
2024/04/08 01:04:29;;;;;;;2.88;1.52;;;;;;;6.29;67.45;94063.00;524668;28;870;-73
2024/04/08 01:04:44;;;;;;;2.00;1.77;;;;;;;6.26;67.21;94061.28;526920;28;887;-73
2024/04/08 01:05:00;;;;;;;1.80;1.70;;;;;;;6.23;67.74;94072.53;529088;27;851;-73
2024/04/08 01:05:15;;;;;;;2.07;1.50;;;;;;;6.18;67.61;94062.31;530202;27;898;-73
2024/04/08 01:05:32;;;;;;;2.42;1.80;;;;;;;6.17;67.96;94064.31;530330;27;759;-73
2024/04/08 01:05:49;;;;;;;2.30;1.90;;;;;;;6.18;67.98;94062.31;530361;27;827;-73
2024/04/08 01:06:05;;;;;;;1.85;1.58;;;;;;;6.16;68.15;94064.81;530286;27;835;-73
2024/04/08 01:06:20;;;;;;;2.43;1.60;;;;;;;6.16;68.24;94070.28;530182;27;795;-73
2024/04/08 01:06:35;;;;;;;2.30;1.63;;;;;;;6.18;68.11;94073.28;530174;27;772;-73
2024/04/08 01:06:51;;;;;;;2.10;1.70;;;;;;;6.15;68.27;94064.06;530220;27;771;-73
2024/04/08 01:07:06;;;;;;;2.53;1.80;;;;;;;6.16;68.26;94073.03;530099;27;776;-73
2024/04/08 01:07:22;;;;;;;1.98;1.50;;;;;;;6.15;68.07;94069.53;530044;27;874;-73
2024/04/08 01:07:37;;;;;;;1.80;1.70;;;;;;;6.11;67.70;94069.81;530120;27;803;-73
2024/04/08 01:07:53;;;;;;;2.00;1.80;;;;;;;6.06;67.71;94075.34;530178;27;764;-73
2024/04/08 01:08:08;;;;;;;2.07;1.80;;;;;;;6.04;67.60;94072.34;529961;27;1917;-73
2024/04/08 01:08:24;;;;;;;2.42;1.88;;;;;;;6.03;67.81;94068.88;530271;27;831;-73
2024/04/08 01:08:40;;;;;;;2.60;1.73;;;;;;;6.02;67.83;94070.09;530325;27;824;-73
2024/04/08 01:08:57;;;;;;;2.65;1.65;;;;;;;6.03;68.16;94070.84;530056;27;879;-73
2024/04/08 01:09:12;;;;;;;2.25;1.63;;;;;;;6.03;68.13;94068.88;530023;27;942;-73
2024/04/08 01:09:28;;;;;;;2.27;1.50;;;;;;;6.04;68.34;94067.59;530049;27;767;-73
2024/04/08 01:09:44;;;;;;;2.45;1.70;;;;;;;6.06;68.31;94067.84;530107;27;768;-73
2024/04/08 01:09:59;;;;;;;2.63;1.60;;;;;;;6.06;68.31;94067.84;530142;27;901;-71
2024/04/08 01:10:16;;;;;;;2.60;1.57;;;;;;;6.03;68.42;94068.88;529994;27;803;-73
2024/04/08 01:10:31;;;;;;;2.53;1.65;;;;;;;6.02;68.18;94072.13;530140;27;784;-73
2024/04/08 01:10:47;;;;;;;2.50;1.70;;;;;;;5.96;68.52;94069.38;530129;27;818;-73
2024/04/08 01:11:02;;;;;;;2.83;1.90;;;;;;;5.90;68.66;94063.19;530118;27;831;-73
2024/04/08 01:11:18;;;;;;;3.17;1.88;;;;;;;5.90;68.76;94065.91;530075;27;898;-73
2024/04/08 01:11:33;;;;;;;3.23;1.70;;;;;;;5.92;68.95;94070.88;530118;27;867;-73
2024/04/08 01:11:49;;;;;;;2.58;1.77;;;;;;;5.94;68.94;94069.13;530150;27;756;-73
2024/04/08 01:12:05;;;;;;;2.30;1.83;;;;;;;5.96;68.62;94065.88;529570;27;748;-73
2024/04/08 01:12:20;;;;;;;2.83;1.85;;;;;;;5.86;68.72;94051.75;527950;28;811;-73
2024/04/08 01:12:36;;;;;;;2.37;1.87;;;;;;;6.01;68.29;94071.38;528022;28;843;-73
2024/04/08 01:12:51;;;;;;;2.45;1.98;;;;;;;6.04;68.58;94073.09;528018;28;964;-73
2024/04/08 01:13:06;;;;;;;2.70;2.00;;;;;;;6.05;68.37;94074.59;528255;27;776;-73
2024/04/08 01:13:22;;;;;;;3.80;2.08;;;;;;;5.98;68.65;94066.13;530045;27;993;-73
2024/04/08 01:13:38;;;;;;;3.97;1.90;;;;;;;5.93;68.96;94064.91;530317;27;854;-73
2024/04/08 01:13:54;;;;;;;2.67;1.83;;;;;;;5.86;69.02;94070.91;530311;27;843;-73
2024/04/08 01:14:09;;;;;;;2.53;1.80;;;;;;;5.87;68.93;94071.66;530217;27;887;-73
2024/04/08 01:14:25;;;;;;;2.25;1.70;;;;;;;5.87;69.11;94066.91;530094;27;747;-73
2024/04/08 01:14:40;;;;;;;2.37;1.70;;;;;;;5.88;69.17;94065.69;530327;27;850;-73
2024/04/08 01:14:56;;;;;;;2.88;1.73;;;;;;;5.91;69.04;94061.91;530285;27;796;-73
2024/04/08 01:15:12;;;;;;;2.37;1.77;;;;;;;5.94;68.88;94069.13;530226;27;839;-73
2024/04/08 01:15:28;;;;;;;3.05;1.90;;;;;;;5.97;68.92;94068.16;530281;27;901;-73
2024/04/08 01:15:43;;;;;;;3.55;2.10;;;;;;;6.00;68.92;94063.63;530221;27;823;-73
2024/04/08 01:16:00;;;;;;;3.33;1.90;;;;;;;6.02;68.75;94061.88;530266;27;855;-73
2024/04/08 01:16:15;;;;;;;3.58;2.15;;;;;;;6.04;68.30;94064.84;529949;27;843;-73
2024/04/08 01:16:30;;;;;;;3.10;2.30;;;;;;;6.07;68.19;94063.09;530116;27;819;-73
2024/04/08 01:16:46;;;;;;;2.75;2.10;;;;;;;6.08;68.44;94061.88;530102;27;768;-73
2024/04/08 01:17:01;;;;;;;2.33;1.80;;;;;;;6.10;67.93;94062.88;530121;27;748;-73
2024/04/08 01:17:17;;;;;;;2.65;1.90;;;;;;;6.11;67.89;94064.34;530001;27;846;-73
2024/04/08 01:17:32;;;;;;;2.80;1.90;;;;;;;6.14;68.06;94062.59;530058;27;815;-73
2024/04/08 01:17:49;;;;;;;2.22;1.80;;;;;;;6.15;68.05;94064.06;530141;27;835;-73
2024/04/08 01:18:05;;;;;;;2.67;2.00;;;;;;;6.17;68.13;94060.84;530148;27;930;-73
2024/04/08 01:18:20;;;;;;;2.63;1.88;;;;;;;6.20;67.96;94062.56;530218;27;839;-73